Date,TemperatureHighF,TemperatureAvgF,TemperatureLowF,DewpointHighF,DewpointAvgF,DewpointLowF,HumidityHigh,HumidityAvg,HumidityLow,PressureMaxIn,PressureMinIn,WindSpeedMaxMPH,WindSpeedAvgMPH,GustSpeedMaxMPH,PrecipitationSumIn
2013-4-1,43,30,18,24,20,15,89,69,43,30.27,30.11,18,4,18,0.00
2013-4-2,60,40,21,32,25,17,88,60,33,30.23,30.05,19,6,19,0.00
2013-4-3,59,45,30,32,28,24,79,53,31,30.15,29.99,33,14,33,0.00
2013-4-4,59,45,32,33,26,18,86,54,24,30.05,29.99,24,8,24,0.00
2013-4-5,69,50,31,41,33,26,84,55,26,30.02,29.46,44,18,44,0.00
2013-4-6,72,57,45,45,39,32,73,54,26,29.65,29.41,32,10,32,0.00
2013-4-7,65,50,38,52,42,33,92,77,38,29.67,29.49,24,5,24,0.11
2013-4-8,69,52,38,51,45,36,91,79,47,29.66,29.46,32,8,32,0.02
2013-4-9,40,26,20,38,24,18,92,91,90,30.07,29.59,34,13,34,1.47
2013-4-10,28,26,23,26,24,21,92,91,91,30.08,29.84,21,8,21,0.00
2013-4-11,31,28,26,28,26,24,92,91,89,29.84,29.64,18,6,18,0.06
2013-4-12,39,31,26,33,27,24,91,87,79,29.96,29.75,25,7,25,0.07
2013-4-13,51,39,25,43,35,23,92,84,73,29.96,29.46,33,10,33,0.00
2013-4-14,53,44,34,45,38,29,91,80,56,29.58,29.18,35,12,35,0.08
2013-4-15,46,36,27,30,26,21,85,68,48,30.04,29.58,24,9,24,0.00
2013-4-16,46,38,31,31,28,26,85,69,48,30.17,30.01,24,8,24,0.00
2013-4-17,37,33,30,34,30,27,91,88,74,30.12,29.84,33,12,33,0.05
2013-4-18,31,28,26,28,26,24,92,91,90,29.93,29.82,33,14,33,0.01
2013-4-19,43,32,23,28,23,19,86,70,48,30.05,29.89,28,8,28,0.00
2013-4-20,44,34,22,31,26,18,89,75,53,30.13,30.02,28,9,28,0.00
2013-4-21,62,45,32,48,37,26,86,75,50,30.06,29.91,25,8,28,0.03
2013-4-22,40,34,29,36,31,27,92,90,85,30.21,29.94,29,12,29,0.11
2013-4-23,35,27,19,26,22,16,92,79,61,30.28,30.15,24,8,24,0.10
2013-4-24,53,39,19,36,28,16,89,67,43,30.17,30.00,32,7,32,0.00
2013-4-25,72,49,25,40,31,21,89,57,24,30.13,29.76,38,13,38,0.00
2013-4-26,73,58,37,39,35,31,82,46,23,30.02,29.81,27,8,27,0.00
2013-4-27,78,58,33,47,38,30,89,53,21,30.02,29.71,17,4,17,0.00
2013-4-28,85,66,49,53,44,35,84,51,19,29.73,29.48,30,10,30,0.00
2013-4-29,78,63,48,49,44,39,76,51,31,29.66,29.26,25,9,25,0.00
2013-4-30,68,58,47,55,38,23,76,51,21,29.89,29.23,30,10,30,0.00